createdAt,value
2016-10-21T11:43:00.326Z,384
2016-10-21T11:44:00.385Z,324
2016-10-21T11:44:59.919Z,364
2016-10-21T11:45:59.969Z,336
2016-10-21T11:47:00.476Z,296
2016-10-21T11:48:00.974Z,304
2016-10-21T11:48:59.577Z,304
2016-10-21T11:49:59.385Z,392
2016-10-21T11:51:14.236Z,416
2016-10-21T11:51:59.339Z,396
2016-10-21T11:53:01.842Z,468
2016-10-21T11:54:00.664Z,504
2016-10-21T11:54:59.241Z,524
2016-10-21T11:56:00.389Z,552
2016-10-21T11:57:13.950Z,556
2016-10-21T11:57:59.532Z,560
2016-10-21T11:59:00.372Z,528
2016-10-21T12:01:00.451Z,572
2016-10-21T12:01:59.882Z,564
2016-10-21T12:04:36.958Z,556
2016-10-21T12:05:22.860Z,556
2016-10-21T12:06:23.037Z,520
2016-10-21T12:07:22.495Z,520
2016-10-21T12:08:22.040Z,584
2016-10-21T12:09:22.364Z,588
2016-10-21T12:10:22.361Z,520
2016-10-21T12:11:22.690Z,372
2016-10-21T12:12:21.921Z,268
2016-10-21T12:13:22.259Z,236
2016-10-21T12:14:22.283Z,204
2016-10-21T12:15:36.692Z,244
2016-10-21T12:16:22.056Z,264
2016-10-21T12:17:21.794Z,248
2016-10-21T12:18:21.799Z,288
2016-10-21T12:19:22.118Z,296
2016-10-21T12:20:21.737Z,256
2016-10-21T12:21:21.657Z,288
2016-10-21T12:22:21.657Z,256
2016-10-21T12:23:22.006Z,184
2016-10-21T12:24:21.622Z,172
2016-10-21T12:25:21.534Z,168
2016-10-21T12:26:21.983Z,180
2016-10-21T12:27:21.904Z,188
2016-10-21T12:28:22.163Z,176
2016-10-21T12:29:22.222Z,176
2016-10-21T12:30:22.532Z,172
2016-10-21T12:31:21.400Z,152
2016-10-21T12:32:22.135Z,128
2016-10-21T12:33:32.288Z,108
2016-10-21T12:34:21.313Z,104
2016-10-21T12:35:36.365Z,108
2016-10-21T12:37:21.574Z,104
2016-10-21T12:38:21.541Z,120
2016-10-21T12:39:21.168Z,128
2016-10-21T12:40:21.473Z,148
2016-10-21T12:41:21.069Z,172
2016-10-21T12:42:21.437Z,120
2016-10-21T12:43:21.443Z,108
2016-10-21T12:45:21.126Z,120
2016-10-21T12:46:35.739Z,164
2016-10-21T12:47:21.623Z,168
2016-10-21T12:48:20.970Z,196
2016-10-21T12:49:35.796Z,192
2016-10-21T12:50:36.569Z,176
2016-10-21T12:51:20.875Z,180
2016-10-21T12:52:21.283Z,216
2016-10-21T12:53:21.551Z,208
2016-10-21T12:54:21.101Z,244
2016-10-21T12:55:20.823Z,264
2016-10-21T12:56:20.656Z,228
2016-10-21T12:58:20.943Z,200
2016-10-21T12:59:20.636Z,220
2016-10-21T13:00:36.807Z,256
2016-10-21T13:05:15.770Z,316
2016-10-21T13:06:15.463Z,296
2016-10-21T13:07:15.438Z,260
2016-10-21T13:08:15.307Z,280
2016-10-21T13:09:15.718Z,272
2016-10-21T13:11:15.227Z,204
2016-10-21T13:12:16.008Z,180
2016-10-21T13:13:15.557Z,180
2016-10-21T13:14:15.503Z,196
2016-10-21T13:15:18.587Z,256
2016-10-21T13:19:01.474Z,228
2016-10-21T13:20:02.632Z,236
2016-10-21T13:21:16.051Z,240
2016-10-21T13:22:02.051Z,236
2016-10-21T13:23:02.719Z,228
2016-10-21T13:24:02.971Z,208
2016-10-21T13:25:02.808Z,164
2016-10-21T13:26:01.688Z,152
2016-10-21T13:27:01.116Z,152
2016-10-21T13:28:01.487Z,144
2016-10-21T13:29:01.494Z,148
2016-10-21T13:30:01.678Z,148
2016-10-21T13:31:01.019Z,164
2016-10-21T13:32:16.383Z,168
2016-10-21T13:33:01.481Z,176
2016-10-21T13:34:16.036Z,164
2016-10-21T13:35:01.377Z,168
2016-10-21T13:36:15.599Z,140
2016-10-21T13:37:00.869Z,124
2016-10-21T13:38:00.974Z,116
2016-10-21T13:39:15.497Z,124
2016-10-21T13:40:15.854Z,140
2016-10-21T13:42:00.917Z,168
2016-10-21T13:43:15.789Z,164
2016-10-21T13:44:00.762Z,152
2016-10-21T13:45:15.767Z,152
2016-10-21T13:46:01.261Z,148
2016-10-21T13:49:17.733Z,124
2016-10-21T13:50:17.825Z,116
2016-10-21T13:54:18.761Z,128
2016-10-21T13:55:03.706Z,140
2016-10-21T13:56:03.701Z,144
2016-10-21T13:57:03.847Z,156
2016-10-21T13:58:04.164Z,164
2016-10-21T13:59:03.507Z,152
2016-10-21T14:00:03.812Z,132
2016-10-21T14:01:07.357Z,120
2016-10-21T14:02:04.027Z,92
2016-10-21T14:03:18.028Z,96
2016-10-21T14:04:03.352Z,100
2016-10-21T14:05:10.256Z,112
2016-10-21T14:06:04.055Z,124
2016-10-21T14:07:03.760Z,116
2016-10-21T14:08:03.552Z,116
2016-10-21T14:09:18.010Z,96
2016-10-21T14:10:03.089Z,96
2016-10-21T14:11:18.562Z,100
2016-10-21T14:12:03.245Z,100
2016-10-21T14:13:18.896Z,96
2016-10-21T14:14:03.018Z,96
2016-10-21T14:15:18.782Z,88
2016-10-21T14:16:04.633Z,88
2016-10-21T14:17:02.985Z,96
2016-10-21T14:18:06.026Z,92
2016-10-21T14:19:03.519Z,84
2016-10-21T14:20:03.593Z,80
2016-10-21T14:21:02.907Z,84
2016-10-21T14:22:03.244Z,100
2016-10-21T14:23:02.870Z,116
2016-10-21T14:26:10.355Z,88
2016-10-21T14:26:26.152Z,80
2016-10-21T14:27:26.156Z,64
2016-10-21T14:29:25.689Z,68
2016-10-21T14:30:26.768Z,72
2016-10-21T14:31:26.476Z,80
2016-10-21T14:32:26.800Z,80
2016-10-21T14:33:25.996Z,84
2016-10-21T14:34:26.867Z,72
2016-10-21T14:35:26.656Z,64
2016-10-21T14:36:25.978Z,64
2016-10-21T14:37:25.553Z,56
2016-10-21T14:38:25.508Z,52
2016-10-21T14:40:55.095Z,52
2016-10-21T14:41:25.371Z,60
2016-10-21T14:42:25.406Z,68
2016-10-21T14:43:25.831Z,60
2016-10-21T14:44:26.277Z,52
2016-10-21T14:47:34.226Z,36
2016-10-21T14:48:49.575Z,40
2016-10-21T14:49:35.454Z,48
2016-10-21T14:50:34.377Z,52
2016-10-21T14:51:34.635Z,44
2016-10-21T14:52:48.806Z,40
2016-10-21T14:53:34.482Z,36
2016-10-21T14:54:34.151Z,32
2016-10-21T14:55:33.977Z,32
2016-10-21T14:56:33.893Z,36
2016-10-21T14:57:33.845Z,36
2016-10-21T14:58:33.800Z,32
2016-10-21T14:59:34.135Z,28
2016-10-21T15:00:48.933Z,28
2016-10-21T15:01:48.486Z,28
2016-10-21T15:02:33.705Z,24
2016-10-21T15:03:33.604Z,20
2016-10-21T15:04:48.293Z,16
2016-10-21T15:05:34.345Z,20
2016-10-21T15:06:33.917Z,24
2016-10-21T15:07:33.586Z,28
2016-10-21T15:08:33.541Z,32
2016-10-21T15:09:33.878Z,28
2016-10-21T15:10:34.380Z,20
2016-10-21T15:11:33.990Z,20
2016-10-21T15:12:48.548Z,20
2016-10-21T15:13:33.312Z,24
2016-10-21T15:14:48.011Z,24
2016-10-21T15:15:33.819Z,24
2016-10-21T15:16:33.732Z,24
2016-10-21T15:17:33.705Z,24
2016-10-21T15:18:33.399Z,20
2016-10-21T15:19:47.942Z,20
2016-10-21T15:21:48.760Z,16
2016-10-21T15:22:33.161Z,16
2016-10-21T15:23:48.177Z,12
2016-10-21T15:25:35.565Z,20
2016-10-21T15:27:35.045Z,16
2016-10-21T15:28:33.862Z,16
2016-10-21T15:29:48.949Z,20
2016-10-21T15:30:34.489Z,20
2016-10-21T15:31:33.574Z,20
2016-10-21T15:32:33.579Z,24
2016-10-21T15:33:33.939Z,20
2016-10-21T15:35:35.614Z,16
2016-10-21T15:36:34.462Z,16
2016-10-21T15:37:33.061Z,16
2016-10-21T15:38:33.303Z,16
2016-10-21T15:39:34.640Z,16
2016-10-21T15:40:33.725Z,16
2016-10-21T15:41:33.678Z,16
2016-10-21T15:42:32.867Z,16
2016-10-21T15:43:32.951Z,16
2016-10-21T15:45:48.016Z,16
2016-10-21T15:46:32.393Z,16
2016-10-21T15:47:32.411Z,12
2016-10-21T15:48:32.531Z,12
2016-10-21T15:49:32.764Z,12
2016-10-21T15:50:32.589Z,12
2016-10-21T15:51:47.558Z,16
2016-10-21T15:52:33.747Z,12
2016-10-21T15:53:32.621Z,12
2016-10-21T15:54:48.062Z,8
2016-10-21T15:55:32.085Z,8
2016-10-21T15:56:46.946Z,12
2016-10-21T15:57:32.918Z,8
2016-10-21T15:58:32.452Z,8
2016-10-21T15:59:32.286Z,4
2016-10-21T16:00:32.575Z,8
2016-10-21T16:01:39.202Z,4
2016-10-21T16:03:46.916Z,4
2016-10-21T16:04:31.889Z,4
2016-10-21T16:05:32.091Z,4
2016-10-21T16:06:32.329Z,4
2016-10-21T16:07:31.950Z,4
2016-10-21T16:08:31.748Z,4
2016-10-21T16:09:31.804Z,4
2016-10-21T16:10:31.736Z,4
2016-10-21T16:11:32.355Z,8
2016-10-21T16:12:46.345Z,4
2016-10-21T16:13:31.916Z,8
2016-10-21T16:14:31.541Z,4
2016-10-21T16:15:33.040Z,4
2016-10-21T16:16:31.693Z,0
2016-10-21T16:17:46.905Z,4
2016-10-21T16:18:46.511Z,4
2016-10-21T16:19:46.517Z,4
2016-10-21T16:20:32.189Z,0
2016-10-21T16:21:31.527Z,0
2016-10-21T16:22:31.749Z,0
2016-10-21T16:23:46.378Z,0
2016-10-21T16:24:31.862Z,0
2016-10-21T16:25:31.296Z,0
2016-10-21T16:26:31.806Z,0
2016-10-21T16:27:32.000Z,0
2016-10-21T16:28:31.584Z,0
2016-10-21T16:29:31.635Z,0
2016-10-21T16:30:32.109Z,0
2016-10-21T16:31:31.892Z,0
2016-10-21T16:32:32.124Z,0
2016-10-21T16:33:31.192Z,0
2016-10-21T16:34:31.989Z,0
2016-10-21T16:35:46.955Z,0
2016-10-21T16:36:30.907Z,0
2016-10-21T16:37:31.636Z,0
2016-10-21T16:38:31.366Z,0
2016-10-21T16:39:31.627Z,0
2016-10-21T16:40:31.267Z,0
2016-10-21T16:41:31.514Z,0
2016-10-21T16:42:31.186Z,0
2016-10-21T16:43:30.924Z,0
2016-10-21T16:44:31.542Z,0
2016-10-21T16:45:31.202Z,0
2016-10-21T16:46:31.432Z,0
2016-10-21T16:47:31.651Z,0
2016-10-21T16:48:30.739Z,0
2016-10-21T16:49:30.579Z,0
2016-10-21T16:50:31.122Z,0
2016-10-21T16:51:30.473Z,0
2016-10-21T16:52:30.846Z,0
2016-10-21T16:53:31.710Z,0
2016-10-21T16:55:30.608Z,0
2016-10-21T16:56:45.007Z,0
2016-10-21T16:57:31.411Z,0
2016-10-21T16:58:30.270Z,0
2016-10-21T16:59:30.443Z,0
2016-10-21T17:00:30.679Z,0
2016-10-21T17:01:31.689Z,0
2016-10-21T17:02:31.009Z,0
2016-10-21T17:03:44.831Z,0
2016-10-21T17:04:30.843Z,0
2016-10-21T17:05:30.402Z,0
2016-10-21T17:06:30.386Z,0
2016-10-21T17:07:30.747Z,0
2016-10-21T17:08:45.022Z,0
2016-10-21T17:09:29.886Z,0
2016-10-21T17:10:30.242Z,0
2016-10-21T17:11:29.863Z,0
2016-10-21T17:12:30.169Z,0
2016-10-21T17:13:31.745Z,0
2016-10-21T17:14:45.125Z,0
2016-10-21T17:15:30.594Z,0
2016-10-21T17:16:30.064Z,0
2016-10-21T17:17:29.669Z,0
2016-10-21T17:18:30.072Z,0
2016-10-21T17:19:44.976Z,0
2016-10-21T17:20:30.362Z,0
2016-10-21T17:21:45.334Z,0
2016-10-21T17:22:30.104Z,0
2016-10-21T17:23:30.784Z,0
2016-10-21T17:24:32.111Z,0
2016-10-21T17:25:30.026Z,0
2016-10-21T17:26:29.407Z,0
2016-10-21T17:27:29.519Z,0
2016-10-21T17:28:29.877Z,0
2016-10-21T17:29:29.545Z,0
2016-10-21T17:30:29.714Z,0
2016-10-21T17:31:31.589Z,0
2016-10-21T17:32:30.563Z,0
2016-10-21T17:33:30.084Z,0
2016-10-21T17:34:29.164Z,0
2016-10-21T17:35:29.853Z,0
2016-10-21T17:36:30.076Z,0
2016-10-21T17:37:29.603Z,0
2016-10-21T17:38:29.660Z,0
2016-10-21T17:39:29.060Z,0
2016-10-21T17:40:29.422Z,0
2016-10-21T17:41:43.818Z,0
2016-10-21T17:42:29.122Z,0
2016-10-21T17:43:43.943Z,0
2016-10-21T17:44:29.337Z,0
2016-10-21T17:45:43.663Z,0
2016-10-21T17:46:28.814Z,0
2016-10-21T17:47:29.104Z,0
2016-10-21T17:48:29.966Z,0
2016-10-21T17:49:29.078Z,0
2016-10-21T17:50:29.294Z,0
2016-10-21T17:51:29.585Z,0
2016-10-21T17:52:28.632Z,0
2016-10-21T17:53:29.015Z,0
2016-10-21T17:54:43.334Z,0
2016-10-21T17:55:28.548Z,0
2016-10-21T17:56:28.497Z,0
2016-10-21T17:57:28.839Z,0
2016-10-21T17:58:28.869Z,0
2016-10-21T17:59:28.777Z,0
2016-10-21T18:00:29.398Z,0
2016-10-21T18:01:28.873Z,0
2016-10-21T18:02:28.743Z,0
2016-10-21T18:03:29.005Z,0
2016-10-21T18:04:28.270Z,0
2016-10-21T18:06:28.226Z,0
2016-10-21T18:07:43.531Z,0
2016-10-21T18:08:28.596Z,0
2016-10-21T18:09:28.680Z,0
2016-10-21T18:10:28.973Z,0
2016-10-21T18:11:28.187Z,0
2016-10-21T18:12:28.028Z,0
2016-10-21T18:13:27.978Z,0
2016-10-21T18:14:28.601Z,0
2016-10-21T18:15:28.301Z,0
2016-10-21T18:16:28.581Z,0
2016-10-21T18:17:28.746Z,0
2016-10-21T18:18:27.818Z,0
2016-10-21T18:19:27.807Z,0
2016-10-21T18:20:27.900Z,0
2016-10-21T18:21:27.858Z,0
2016-10-21T18:22:27.737Z,0
2016-10-21T18:23:28.428Z,0
2016-10-21T18:24:28.082Z,0
2016-10-21T18:26:27.950Z,0
2016-10-21T18:27:27.572Z,0
2016-10-21T18:28:27.987Z,0
2016-10-21T18:29:27.637Z,0
2016-10-21T18:30:27.479Z,0
2016-10-21T18:31:27.810Z,0
2016-10-21T18:32:27.869Z,0
2016-10-21T18:33:28.293Z,0
2016-10-21T18:34:27.826Z,0
2016-10-21T18:35:27.444Z,0
2016-10-21T18:36:27.690Z,0
2016-10-21T18:37:27.843Z,0
2016-10-21T18:38:27.278Z,0
2016-10-21T18:39:27.527Z,0
2016-10-21T18:40:42.308Z,0
2016-10-21T18:41:27.689Z,0
2016-10-21T18:42:27.728Z,0
2016-10-21T18:43:27.175Z,0
2016-10-21T18:44:27.486Z,0
2016-10-21T18:45:27.441Z,0
2016-10-21T18:46:27.392Z,0
2016-10-21T18:47:27.928Z,0
2016-10-21T18:48:27.335Z,0
2016-10-21T18:49:27.321Z,0
2016-10-21T18:50:27.234Z,0
2016-10-21T18:52:27.105Z,0
2016-10-21T18:53:26.801Z,0
2016-10-21T18:54:26.781Z,0
2016-10-21T18:55:26.735Z,0
2016-10-21T18:56:27.465Z,0
2016-10-21T18:57:41.547Z,0
2016-10-21T18:58:27.220Z,0
2016-10-21T18:59:41.421Z,0
2016-10-21T19:00:27.637Z,0
2016-10-21T19:01:27.779Z,0
2016-10-21T19:02:26.553Z,0
2016-10-21T19:03:26.483Z,0
2016-10-21T19:04:26.479Z,0
2016-10-21T19:05:26.591Z,0
2016-10-21T19:06:26.461Z,0
2016-10-21T19:07:27.201Z,0
2016-10-21T19:08:26.735Z,0
2016-10-21T19:09:26.322Z,0
2016-10-21T19:10:41.430Z,0
2016-10-21T19:11:26.265Z,0
2016-10-21T19:12:26.267Z,0
2016-10-21T19:13:26.943Z,0
2016-10-21T19:14:26.542Z,0
2016-10-21T19:15:26.596Z,0
2016-10-21T19:16:26.929Z,0
2016-10-21T19:17:41.385Z,0
2016-10-21T19:18:26.476Z,0
2016-10-21T19:19:26.454Z,0
2016-10-21T19:20:26.774Z,0
2016-10-21T19:21:25.998Z,0
2016-10-21T19:22:26.334Z,0
2016-10-21T19:23:26.280Z,0
2016-10-21T19:24:25.889Z,0
2016-10-21T19:25:26.980Z,0
2016-10-21T19:26:26.158Z,0
2016-10-21T19:27:25.834Z,0
2016-10-21T19:28:25.845Z,0
2016-10-21T19:29:41.726Z,0
2016-10-21T19:30:26.393Z,0
2016-10-21T19:31:25.718Z,0
2016-10-21T19:32:26.174Z,0
2016-10-21T19:33:25.643Z,0
2016-10-21T19:34:25.980Z,0
2016-10-21T19:35:26.297Z,0
2016-10-21T19:36:25.904Z,0
2016-10-21T19:37:25.936Z,0
2016-10-21T19:38:25.880Z,0
2016-10-21T19:39:26.328Z,0
2016-10-21T19:40:40.243Z,0
2016-10-21T19:41:26.519Z,0
2016-10-21T19:42:25.328Z,0
2016-10-21T19:43:25.844Z,0
2016-10-21T19:44:41.558Z,0
2016-10-21T19:45:25.752Z,0
2016-10-21T19:46:25.983Z,0
2016-10-21T19:47:25.426Z,0
2016-10-21T19:48:25.155Z,0
2016-10-21T19:49:25.933Z,0
2016-10-21T19:50:40.621Z,0
2016-10-21T19:51:25.426Z,0
2016-10-21T19:52:26.074Z,0
2016-10-21T19:53:25.190Z,0
2016-10-21T19:54:25.464Z,0
2016-10-21T19:55:25.883Z,0
2016-10-21T19:56:26.325Z,0
2016-10-21T19:57:24.959Z,0
2016-10-21T19:58:27.153Z,0
2016-10-21T19:59:25.001Z,0
2016-10-21T20:00:29.869Z,0
2016-10-21T20:01:25.295Z,0
2016-10-21T20:02:25.572Z,0
2016-10-21T20:03:24.789Z,0
2016-10-21T20:04:25.117Z,0
2016-10-21T20:05:24.826Z,0
2016-10-21T20:08:02.937Z,0
2016-10-21T20:08:48.546Z,0
2016-10-21T20:09:48.118Z,0
2016-10-21T20:10:47.774Z,0
2016-10-21T20:11:47.743Z,0
2016-10-21T20:12:48.058Z,0
2016-10-21T20:13:48.062Z,0
2016-10-21T20:15:48.315Z,0
2016-10-21T20:16:47.909Z,0
2016-10-21T20:17:47.496Z,0
2016-10-21T20:18:47.430Z,0
2016-10-21T20:19:47.746Z,0
2016-10-21T20:20:47.474Z,0
2016-10-21T20:21:47.807Z,0
2016-10-21T20:22:48.054Z,0
2016-10-21T20:23:47.429Z,0
2016-10-21T20:24:47.251Z,0
2016-10-21T20:26:02.016Z,0
2016-10-21T20:26:47.652Z,0
2016-10-21T20:28:02.418Z,0
2016-10-21T20:28:47.178Z,0
2016-10-21T20:30:01.829Z,0
2016-10-21T20:30:48.049Z,0
2016-10-21T20:31:47.091Z,0
2016-10-21T20:32:48.737Z,0
2016-10-21T20:33:47.428Z,0
2016-10-21T20:34:47.368Z,0
2016-10-21T20:35:47.670Z,0
2016-10-21T20:36:47.993Z,0
2016-10-21T20:39:02.246Z,0
2016-10-21T20:39:47.706Z,0
2016-10-21T20:40:46.942Z,0
2016-10-21T20:41:47.537Z,0
2016-10-21T20:42:47.290Z,0
2016-10-21T20:43:47.416Z,0
2016-10-21T20:44:48.595Z,0
2016-10-21T20:45:47.079Z,0
2016-10-21T20:46:46.986Z,0
2016-10-21T20:47:46.545Z,0
2016-10-21T20:48:46.934Z,0
2016-10-21T20:49:46.571Z,0
2016-10-21T20:50:46.501Z,0
2016-10-21T20:51:46.575Z,0
2016-10-21T20:52:46.818Z,0
2016-10-21T20:53:46.456Z,0
2016-10-21T20:54:47.193Z,0
2016-10-21T20:56:02.063Z,0
2016-10-21T20:56:46.744Z,0
2016-10-21T20:58:01.006Z,0
2016-10-21T20:58:46.311Z,0
2016-10-21T21:00:01.244Z,0
2016-10-21T21:00:47.478Z,0
2016-10-21T21:01:46.608Z,0
2016-10-21T21:02:46.509Z,0
2016-10-21T21:03:46.582Z,0
2016-10-21T21:05:00.985Z,0
2016-10-21T21:05:46.394Z,0
2016-10-21T21:07:01.092Z,0
2016-10-21T21:07:46.353Z,0
2016-10-21T21:08:46.737Z,0
2016-10-21T21:09:46.683Z,0
2016-10-21T21:10:46.280Z,0
2016-10-21T21:11:45.970Z,0
2016-10-21T21:12:46.457Z,0
2016-10-21T21:14:00.881Z,0
2016-10-21T21:16:01.316Z,0
2016-10-21T21:16:46.252Z,0
2016-10-21T21:19:45.967Z,0
2016-10-21T21:20:45.681Z,0
2016-10-21T21:21:45.978Z,0
2016-10-21T21:22:46.759Z,0
2016-10-21T21:23:45.985Z,0
2016-10-21T21:24:46.097Z,0
2016-10-21T21:26:00.901Z,0
2016-10-21T21:27:50.277Z,0
2016-10-21T21:29:00.145Z,0
2016-10-21T21:29:45.446Z,0
2016-10-21T21:30:45.858Z,0
2016-10-21T21:31:45.286Z,0
2016-10-21T21:32:45.771Z,0
2016-10-21T21:33:59.932Z,0
2016-10-21T21:34:59.885Z,0
2016-10-21T21:36:00.814Z,0
2016-10-21T21:36:45.369Z,0
2016-10-21T21:38:00.270Z,0
2016-10-21T21:38:45.382Z,0
2016-10-21T21:39:45.493Z,0
2016-10-21T21:40:46.384Z,0
2016-10-21T21:42:00.104Z,0
2016-10-21T21:43:14.404Z,0
2016-10-21T21:44:00.007Z,0
2016-10-21T21:45:00.783Z,0
2016-10-21T21:45:46.845Z,0
2016-10-21T21:46:45.414Z,0
2016-10-21T21:47:59.914Z,0
2016-10-21T21:48:45.165Z,0
2016-10-21T21:49:45.646Z,0
2016-10-21T21:50:46.646Z,0
2016-10-21T21:51:45.816Z,0
2016-10-21T21:52:45.118Z,0
2016-10-21T21:53:44.628Z,0
2016-10-21T21:54:45.743Z,0
2016-10-21T21:55:45.248Z,0
2016-10-21T21:56:45.516Z,0
2016-10-21T21:57:44.551Z,0
2016-10-21T21:58:44.488Z,0
2016-10-21T22:00:13.904Z,0
2016-10-21T22:00:44.475Z,0
2016-10-21T22:01:44.404Z,0
2016-10-21T22:02:46.061Z,0
2016-10-21T22:03:44.323Z,0
2016-10-21T22:04:44.332Z,0
2016-10-21T22:05:44.326Z,0
2016-10-21T22:06:44.231Z,0
2016-10-21T22:07:44.656Z,0
2016-10-21T22:08:44.541Z,0
2016-10-21T22:09:44.155Z,0
2016-10-21T22:10:44.294Z,0
2016-10-21T22:11:44.059Z,0
2016-10-21T22:12:44.793Z,0
2016-10-21T22:13:44.372Z,0
2016-10-21T22:14:44.396Z,0
2016-10-21T22:15:44.798Z,0
2016-10-21T22:16:59.135Z,0
2016-10-21T22:17:43.942Z,0
2016-10-21T22:18:43.905Z,0
2016-10-21T22:19:44.249Z,0
2016-10-21T22:20:44.298Z,0
2016-10-21T22:21:44.005Z,0
2016-10-21T22:22:43.847Z,0
2016-10-21T22:23:43.783Z,0
2016-10-21T22:24:43.771Z,0
2016-10-21T22:25:44.545Z,0
2016-10-21T22:26:44.392Z,0
2016-10-21T22:27:54.251Z,0
2016-10-21T22:28:44.020Z,0
2016-10-21T22:29:43.549Z,0
2016-10-21T22:30:44.347Z,0
2016-10-21T22:31:43.877Z,0
2016-10-21T22:32:43.531Z,0
2016-10-21T22:33:43.452Z,0
2016-10-21T22:34:58.515Z,0
2016-10-21T22:35:43.769Z,0
2016-10-21T22:36:43.396Z,0
2016-10-21T22:37:43.739Z,0
2016-10-21T22:38:44.065Z,0
2016-10-21T22:39:44.415Z,0
2016-10-21T22:41:43.657Z,0
2016-10-21T22:42:43.430Z,0
2016-10-21T22:43:57.891Z,0
2016-10-21T22:44:58.516Z,0
2016-10-21T22:45:57.850Z,0
2016-10-21T22:46:43.536Z,0
2016-10-21T22:47:57.778Z,0
2016-10-21T22:48:43.412Z,0
2016-10-21T22:49:43.040Z,0
2016-10-21T22:51:12.404Z,0
2016-10-21T22:51:57.621Z,0
2016-10-21T22:52:58.065Z,0
2016-10-21T22:53:57.953Z,0
2016-10-21T22:54:43.091Z,0
2016-10-21T22:55:57.537Z,0
2016-10-21T22:56:43.156Z,0
2016-10-21T22:57:43.370Z,0
2016-10-21T22:58:57.434Z,0
2016-10-21T22:59:57.447Z,0
2016-10-21T23:00:43.103Z,0
2016-10-21T23:01:42.913Z,0
2016-10-21T23:02:58.347Z,0
2016-10-21T23:03:44.406Z,0
2016-10-21T23:04:42.814Z,0
2016-10-21T23:05:44.193Z,0
2016-10-21T23:06:43.601Z,0
2016-10-21T23:07:42.426Z,0
2016-10-21T23:08:42.433Z,0
2016-10-21T23:09:42.683Z,0
2016-10-21T23:10:58.220Z,0
2016-10-21T23:11:42.355Z,0
2016-10-21T23:12:57.046Z,0
2016-10-21T23:13:42.337Z,0
2016-10-21T23:14:57.631Z,0
2016-10-21T23:15:42.712Z,0
2016-10-21T23:16:42.267Z,0
2016-10-21T23:17:42.167Z,0
2016-10-21T23:18:42.118Z,0
2016-10-21T23:19:42.134Z,0
2016-10-21T23:20:42.791Z,0
2016-10-21T23:21:42.396Z,0
2016-10-21T23:22:41.993Z,0
2016-10-21T23:23:41.982Z,0
2016-10-21T23:24:42.282Z,0
2016-10-21T23:26:42.016Z,0
2016-10-21T23:27:42.003Z,0
2016-10-21T23:28:42.186Z,0
2016-10-21T23:29:41.780Z,0
2016-10-21T23:30:41.956Z,0
2016-10-21T23:31:42.082Z,0
2016-10-21T23:32:41.766Z,0
2016-10-21T23:33:41.668Z,0
2016-10-21T23:34:41.636Z,0
2016-10-21T23:35:41.649Z,0
2016-10-21T23:36:56.321Z,0
2016-10-21T23:37:41.552Z,0
2016-10-21T23:38:56.560Z,0
2016-10-21T23:39:41.510Z,0
2016-10-21T23:40:41.464Z,0
2016-10-21T23:41:41.898Z,0
2016-10-21T23:42:41.858Z,0
2016-10-21T23:43:41.771Z,0
2016-10-21T23:44:41.337Z,0
2016-10-21T23:45:41.337Z,0
2016-10-21T23:46:42.165Z,0
2016-10-21T23:47:41.268Z,0
2016-10-21T23:48:41.300Z,0
2016-10-21T23:49:41.225Z,0
2016-10-21T23:50:41.211Z,0
2016-10-21T23:51:41.908Z,0
2016-10-21T23:52:41.485Z,0
2016-10-21T23:53:41.445Z,0
2016-10-21T23:54:56.440Z,0
2016-10-21T23:55:43.406Z,0
2016-10-21T23:57:41.474Z,0
2016-10-21T23:58:41.112Z,0
2016-10-21T23:59:40.974Z,0
